Time;durP1;ratioP1;P1;durP2;ratioP2;P2;SDS_P1;SDS_P2;PMS_P1;PMS_P2;Temp;Humidity;BMP_temperature;BMP_pressure;BME280_temperature;BME280_humidity;BME280_pressure;Samples;Min_cycle;Max_cycle;Signal;HPM_P1;HPM_P2
2023/04/26 00:00:34;;;;;;;5.72;1.83;;;;;;;3.75;100.00;101305.72;5132940;27;20092;-82
2023/04/26 00:03:00;;;;;;;4.75;1.60;;;;;;;3.51;100.00;101266.88;5130062;27;20053;-82
2023/04/26 00:05:28;;;;;;;3.33;1.40;;;;;;;3.35;100.00;101242.69;5115035;27;20051;-82
2023/04/26 00:07:55;;;;;;;7.40;1.95;;;;;;;3.45;100.00;101274.63;5120695;28;20043;-81
2023/04/26 00:10:22;;;;;;;6.38;1.60;;;;;;;3.67;100.00;101311.75;5125378;27;20047;-82
2023/04/26 00:12:48;;;;;;;4.78;1.70;;;;;;;3.12;100.00;101230.59;5130463;28;20380;-82
2023/04/26 00:15:15;;;;;;;6.53;2.03;;;;;;;3.26;100.00;101251.31;5132707;27;20043;-82
2023/04/26 00:17:42;;;;;;;5.13;1.60;;;;;;;3.12;100.00;101221.97;5132362;28;20480;-81
2023/04/26 00:20:11;;;;;;;4.35;2.13;;;;;;;3.11;100.00;101210.75;5132540;28;20075;-81
2023/04/26 00:22:39;;;;;;;5.57;1.83;;;;;;;3.07;100.00;101214.19;5132139;27;20043;-81
2023/04/26 00:25:06;;;;;;;5.10;1.80;;;;;;;3.38;100.00;101286.69;5126548;27;20130;-81
2023/04/26 00:27:33;;;;;;;5.15;1.80;;;;;;;3.03;100.00;101230.59;5115517;28;20100;-81
2023/04/26 00:30:00;;;;;;;5.82;2.83;;;;;;;3.56;100.00;101310.00;5131990;28;20047;-81
2023/04/26 00:32:26;;;;;;;6.47;1.70;;;;;;;3.15;100.00;101234.91;5131161;28;20506;-82
2023/04/26 00:34:53;;;;;;;4.18;1.92;;;;;;;3.23;100.00;101249.56;5133071;28;20108;-82
2023/04/26 00:37:20;;;;;;;7.93;2.10;;;;;;;3.36;100.00;101271.16;5130909;28;20054;-82
2023/04/26 00:39:47;;;;;;;5.03;1.48;;;;;;;3.08;100.00;101238.34;5132336;27;20400;-81
2023/04/26 00:42:14;;;;;;;5.93;1.70;;;;;;;3.36;100.00;101280.66;5121280;28;20077;-81
2023/04/26 00:44:41;;;;;;;9.13;2.42;;;;;;;3.02;100.00;101255.59;5131425;28;20450;-81
2023/04/26 00:47:08;;;;;;;9.88;2.70;;;;;;;3.11;100.00;101269.41;5133025;28;20043;-81
2023/04/26 00:49:35;;;;;;;5.40;1.67;;;;;;;3.10;100.00;101265.06;5133156;28;20050;-82
2023/04/26 00:52:02;;;;;;;4.75;1.67;;;;;;;2.69;100.00;101193.44;5130374;27;20051;-81
2023/04/26 00:54:29;;;;;;;2.85;1.40;;;;;;;2.92;100.00;101240.03;5134466;27;20055;-82
2023/04/26 00:56:56;;;;;;;5.70;2.03;;;;;;;2.95;100.00;101237.47;5133708;27;20055;-81
2023/04/26 00:59:23;;;;;;;3.83;1.33;;;;;;;3.00;100.00;101243.53;5129737;27;20043;-81
2023/04/26 01:01:49;;;;;;;5.80;1.73;;;;;;;3.24;100.00;101271.16;5131696;27;20627;-81
2023/04/26 01:04:16;;;;;;;4.40;2.00;;;;;;;2.73;100.00;101195.19;5136416;27;20156;-80
2023/04/26 01:06:44;;;;;;;4.82;1.70;;;;;;;3.24;100.00;101276.34;5118710;27;20043;-81
2023/04/26 01:09:14;;;;;;;9.65;2.05;;;;;;;2.83;100.00;101202.97;5135596;27;20047;-81
2023/04/26 01:11:42;;;;;;;4.68;1.70;;;;;;;2.83;100.00;101191.75;5131637;27;20074;-81
2023/04/26 01:14:09;;;;;;;7.03;1.73;;;;;;;2.82;100.00;101180.53;5136506;27;20047;-81
2023/04/26 01:16:37;;;;;;;7.00;2.53;;;;;;;2.93;100.00;101201.25;5127413;27;20055;-81
2023/04/26 01:19:14;;;;;;;5.97;1.67;;;;;;;3.10;100.00;101239.19;5129258;27;20047;-81
2023/04/26 01:21:41;;;;;;;6.57;2.08;;;;;;;2.95;100.00;101227.97;5135320;27;20043;-80
2023/04/26 01:24:12;;;;;;;4.70;1.58;;;;;;;2.71;100.00;101208.13;5128667;27;20058;-81
2023/04/26 01:26:44;;;;;;;2.65;1.35;;;;;;;2.70;100.00;101185.69;5135985;27;20519;-81
2023/04/26 01:29:19;;;;;;;3.13;1.57;;;;;;;3.01;100.00;101243.53;5134449;27;20416;-80
2023/04/26 01:31:47;;;;;;;4.50;1.50;;;;;;;3.19;100.00;101271.16;5133252;27;20051;-81
2023/04/26 01:34:14;;;;;;;3.80;1.40;;;;;;;3.13;100.00;101262.50;5134993;27;20047;-81
2023/04/26 01:36:41;;;;;;;2.30;1.23;;;;;;;2.93;100.00;101226.25;5134608;27;20043;-81
2023/04/26 01:39:08;;;;;;;5.63;1.70;;;;;;;2.51;100.00;101183.94;5124282;27;20097;-81
2023/04/26 01:41:35;;;;;;;5.60;1.50;;;;;;;2.54;100.00;101210.66;5129685;27;20047;-81
2023/04/26 01:44:02;;;;;;;4.97;1.50;;;;;;;2.49;100.00;101208.91;5133920;27;20503;-81
2023/04/26 01:46:29;;;;;;;5.45;1.40;;;;;;;2.38;100.00;101217.47;5134151;27;20065;-81
2023/04/26 01:48:56;;;;;;;6.07;1.98;;;;;;;2.45;100.00;101236.47;5134299;27;20050;-81
2023/04/26 01:51:23;;;;;;;7.70;2.50;;;;;;;2.29;100.00;101201.94;5134057;27;20047;-81
2023/04/26 01:53:50;;;;;;;5.97;2.40;;;;;;;2.45;100.00;101224.41;5130917;27;20039;-81
2023/04/26 01:56:17;;;;;;;6.40;1.75;;;;;;;2.52;100.00;101230.47;5135447;27;20449;-82
2023/04/26 01:58:44;;;;;;;7.45;1.95;;;;;;;2.54;100.00;101233.06;5129934;27;20047;-81
2023/04/26 02:01:11;;;;;;;2.78;1.45;;;;;;;2.59;100.00;101237.38;5136206;27;20362;-82
2023/04/26 02:03:38;;;;;;;5.65;1.60;;;;;;;2.28;100.00;101176.94;5123166;27;20043;-81
2023/04/26 02:06:04;;;;;;;6.50;1.80;;;;;;;2.21;100.00;101188.13;5131342;27;20069;-82
2023/04/26 02:08:31;;;;;;;3.92;1.65;;;;;;;2.35;100.00;101216.59;5136283;27;20476;-81
2023/04/26 02:10:58;;;;;;;4.40;1.70;;;;;;;2.35;100.00;101216.59;5136064;27;20047;-81
2023/04/26 02:13:25;;;;;;;6.30;1.65;;;;;;;2.31;100.00;101213.16;5133763;27;20127;-81
2023/04/26 02:15:52;;;;;;;7.55;2.50;;;;;;;2.01;100.00;101151.88;5136136;27;20043;-81
2023/04/26 02:18:20;;;;;;;4.35;1.60;;;;;;;2.46;100.00;101214.91;5136373;27;20092;-81
2023/04/26 02:20:50;;;;;;;3.40;1.45;;;;;;;2.14;100.00;101179.47;5135618;27;20051;-81
2023/04/26 02:23:17;;;;;;;5.18;1.83;;;;;;;2.11;100.00;101207.00;5134230;27;20492;-80
2023/04/26 02:25:46;;;;;;;6.30;1.52;;;;;;;2.23;100.00;101226.03;5136197;27;20047;-81
2023/04/26 02:28:13;;;;;;;5.90;1.73;;;;;;;1.95;100.00;101188.88;5135643;27;20039;-81
2023/04/26 02:30:40;;;;;;;5.75;1.75;;;;;;;2.12;100.00;101245.78;5130161;27;20118;-81
2023/04/26 02:33:10;;;;;;;5.40;1.67;;;;;;;1.87;100.00;101216.38;5134345;27;20449;-82
2023/04/26 02:35:37;;;;;;;6.22;1.63;;;;;;;1.90;100.00;101201.75;5133900;27;20400;-82
2023/04/26 02:38:04;;;;;;;3.78;1.60;;;;;;;2.22;100.00;101252.72;5134975;27;20521;-81
2023/04/26 02:40:30;;;;;;;7.50;2.03;;;;;;;1.90;100.00;101193.16;5134984;27;20047;-81
2023/04/26 02:42:57;;;;;;;3.67;1.58;;;;;;;2.03;100.00;101205.25;5133929;27;20043;-81
2023/04/26 02:45:24;;;;;;;5.38;2.00;;;;;;;2.00;100.00;101197.53;5135914;27;20047;-81
2023/04/26 02:47:51;;;;;;;5.53;1.70;;;;;;;1.92;100.00;101194.03;5135531;27;20046;-81
2023/04/26 02:50:17;;;;;;;3.13;1.45;;;;;;;2.11;100.00;101225.97;5134435;27;20118;-80
2023/04/26 02:52:44;;;;;;;5.63;1.90;;;;;;;2.04;100.00;101196.66;5134515;27;20050;-80
2023/04/26 02:55:11;;;;;;;4.93;2.05;;;;;;;2.25;100.00;101242.41;5135047;27;20043;-80
2023/04/26 02:57:38;;;;;;;8.32;2.10;;;;;;;1.80;100.00;101181.91;5125957;27;20055;-81
2023/04/26 03:00:06;;;;;;;8.07;2.00;;;;;;;1.92;100.00;101214.69;5128638;27;20047;-81
2023/04/26 03:02:33;;;;;;;6.28;2.13;;;;;;;1.95;100.00;101217.28;5134906;27;20508;-81
2023/04/26 03:05:01;;;;;;;10.95;2.33;;;;;;;1.84;100.00;101199.16;5124377;27;20077;-81
2023/04/26 03:07:27;;;;;;;7.30;3.78;;;;;;;1.80;100.00;101183.63;5135503;27;20500;-81
2023/04/26 03:09:54;;;;;;;5.85;1.85;;;;;;;1.81;100.00;101156.97;5133788;27;20050;-81
2023/04/26 03:12:21;;;;;;;7.70;2.10;;;;;;;2.20;100.00;101214.84;5131554;27;20043;-81
2023/04/26 03:14:48;;;;;;;5.82;1.65;;;;;;;2.07;100.00;101198.38;5134272;27;20070;-81
2023/04/26 03:17:15;;;;;;;4.40;1.58;;;;;;;1.60;100.00;101143.06;5134142;27;20043;-81
2023/04/26 03:19:41;;;;;;;6.03;1.60;;;;;;;1.72;100.00;101170.69;5133631;27;20035;-81
2023/04/26 03:22:10;;;;;;;6.30;1.73;;;;;;;1.89;100.00;101189.72;5133580;27;20041;-81
2023/04/26 03:24:36;;;;;;;3.60;1.45;;;;;;;2.02;100.00;101197.50;5133198;27;20046;-80
2023/04/26 03:27:03;;;;;;;3.88;1.50;;;;;;;1.78;100.00;101149.19;5133331;27;20099;-80
2023/04/26 03:29:30;;;;;;;5.32;1.50;;;;;;;2.23;100.00;101225.16;5125917;27;20103;-82
2023/04/26 03:31:56;;;;;;;5.07;1.85;;;;;;;1.79;100.00;101179.31;5132081;27;20567;-81
2023/04/26 03:34:23;;;;;;;5.15;1.95;;;;;;;1.71;100.00;101172.38;5132652;27;20051;-80
2023/04/26 03:36:50;;;;;;;4.25;1.60;;;;;;;1.88;100.00;101189.72;5132985;27;20043;-81
2023/04/26 03:39:17;;;;;;;3.67;1.60;;;;;;;1.58;100.00;101124.13;5124496;27;20066;-81
2023/04/26 03:41:44;;;;;;;5.32;1.73;;;;;;;1.79;100.00;101180.19;5133789;27;20039;-81
2023/04/26 03:44:11;;;;;;;4.60;1.60;;;;;;;1.75;100.00;101186.16;5134604;27;20047;-81
2023/04/26 03:46:38;;;;;;;4.60;1.63;;;;;;;1.84;100.00;101194.00;5128319;27;20056;-81
2023/04/26 03:49:05;;;;;;;3.53;1.40;;;;;;;1.66;100.00;101163.75;5124508;27;20454;-80
2023/04/26 03:51:31;;;;;;;4.30;1.58;;;;;;;1.65;100.00;101154.28;5130326;27;20043;-81
2023/04/26 03:53:58;;;;;;;6.50;1.77;;;;;;;1.76;100.00;101176.72;5133369;27;20047;-81
2023/04/26 03:56:25;;;;;;;4.20;1.75;;;;;;;1.68;100.00;101197.31;5134518;27;20043;-81
2023/04/26 03:58:52;;;;;;;6.20;1.80;;;;;;;1.47;100.00;101160.19;5134204;27;20050;-81
2023/04/26 04:01:19;;;;;;;4.85;1.58;;;;;;;1.47;100.00;101162.78;5126838;27;20047;-81
2023/04/26 04:03:46;;;;;;;4.90;1.90;;;;;;;1.44;100.00;101139.53;5127984;27;20047;-81
2023/04/26 04:06:13;;;;;;;5.68;1.88;;;;;;;1.68;100.00;101181.81;5132973;27;20047;-81
2023/04/26 04:08:40;;;;;;;4.35;1.70;;;;;;;1.02;100.00;101073.03;5133194;27;20055;-81
2023/04/26 04:11:06;;;;;;;6.00;1.73;;;;;;;1.35;100.00;101128.28;5132996;28;20047;-80
2023/04/26 04:13:33;;;;;;;4.13;1.95;;;;;;;1.31;100.00;101117.97;5133617;27;20055;-80
2023/04/26 04:16:00;;;;;;;3.42;1.58;;;;;;;1.22;100.00;101110.16;5132803;28;20035;-81
2023/04/26 04:18:27;;;;;;;4.22;1.83;;;;;;;1.31;100.00;101138.59;5134020;27;20381;-79
2023/04/26 04:20:53;;;;;;;5.88;1.85;;;;;;;1.44;100.00;101155.00;5131311;28;20051;-80
2023/04/26 04:23:20;;;;;;;5.75;2.08;;;;;;;1.50;100.00;101177.41;5132646;28;20055;-80
2023/04/26 04:25:48;;;;;;;5.60;1.63;;;;;;;1.40;100.00;101153.28;5133713;27;20047;-80
2023/04/26 04:28:15;;;;;;;4.05;1.60;;;;;;;1.26;100.00;101153.19;5132902;28;20049;-79
2023/04/26 04:30:43;;;;;;;3.92;1.50;;;;;;;0.93;100.00;101117.66;5135873;27;20058;-81
2023/04/26 04:33:11;;;;;;;4.03;1.40;;;;;;;1.46;100.00;101209.22;5136140;27;20051;-81
2023/04/26 04:35:40;;;;;;;3.90;1.60;;;;;;;1.25;100.00;101166.06;5137163;27;20059;-82
2023/04/26 04:38:07;;;;;;;5.15;1.70;;;;;;;1.25;100.00;101141.13;5135708;27;20093;-81
2023/04/26 04:40:33;;;;;;;3.92;1.50;;;;;;;1.40;100.00;101170.44;5138607;27;20047;-82
2023/04/26 04:43:01;;;;;;;4.38;1.77;;;;;;;1.35;100.00;101146.34;5135283;27;20072;-81
2023/04/26 04:45:27;;;;;;;5.20;1.50;;;;;;;1.55;100.00;101175.72;5126938;27;20051;-82
2023/04/26 04:47:55;;;;;;;3.40;1.80;;;;;;;1.51;100.00;101148.19;5130376;27;20126;-81
2023/04/26 04:50:22;;;;;;;3.72;1.52;;;;;;;1.58;100.00;101157.69;5138311;27;20472;-81
2023/04/26 04:52:49;;;;;;;4.72;1.77;;;;;;;1.43;100.00;101124.88;5137255;27;20035;-81
2023/04/26 04:55:15;;;;;;;5.65;1.90;;;;;;;1.60;100.00;101150.81;5137763;27;20537;-81
2023/04/26 04:57:42;;;;;;;5.18;1.73;;;;;;;1.58;100.00;101142.19;5135204;27;20054;-81
2023/04/26 05:00:11;;;;;;;5.03;1.70;;;;;;;1.79;100.00;101156.06;5136452;27;20039;-81
2023/04/26 05:02:38;;;;;;;3.65;1.23;;;;;;;1.74;100.00;101131.97;5136487;27;20464;-81
2023/04/26 05:05:05;;;;;;;5.70;1.80;;;;;;;2.04;100.00;101188.91;5132805;27;20051;-81
2023/04/26 05:07:33;;;;;;;5.15;1.55;;;;;;;2.27;100.00;101214.00;5131945;27;20515;-81
2023/04/26 05:10:00;;;;;;;2.80;1.42;;;;;;;2.27;100.00;101195.91;5120393;27;20043;-81
2023/04/26 05:12:26;;;;;;;4.38;1.83;;;;;;;2.03;100.00;101161.34;5133581;27;20043;-82
2023/04/26 05:14:53;;;;;;;4.82;1.77;;;;;;;1.93;100.00;101138.94;5127836;27;20065;-81
2023/04/26 05:17:20;;;;;;;10.82;2.22;;;;;;;2.27;100.00;101176.09;5122513;27;20051;-81
2023/04/26 05:19:47;;;;;;;6.18;1.80;;;;;;;2.20;100.00;101150.25;5137531;27;20551;-80
2023/04/26 05:22:17;;;;;;;7.57;2.20;;;;;;;2.27;100.00;101160.59;5135799;27;20442;-81
2023/04/26 05:24:47;;;;;;;8.65;2.63;;;;;;;2.56;100.00;101192.56;5124667;27;20047;-81
2023/04/26 05:27:16;;;;;;;4.22;1.50;;;;;;;2.62;100.00;101175.34;5135114;27;20069;-81
2023/04/26 05:29:43;;;;;;;3.45;1.52;;;;;;;2.59;100.00;101138.28;5130844;27;20108;-81
2023/04/26 05:32:10;;;;;;;4.50;1.70;;;;;;;2.81;100.00;101171.03;5127624;27;20465;-81
2023/04/26 05:34:37;;;;;;;4.57;1.50;;;;;;;2.91;100.00;101182.28;5134438;27;20043;-81
2023/04/26 05:37:04;;;;;;;6.07;2.78;;;;;;;2.86;100.00;101152.97;5133470;27;20055;-81
2023/04/26 05:39:33;;;;;;;8.27;1.70;;;;;;;3.13;100.00;101208.16;5123286;27;20043;-81
2023/04/26 05:42:02;;;;;;;4.63;1.67;;;;;;;3.05;100.00;101179.72;5121974;27;20043;-82
2023/04/26 05:44:29;;;;;;;7.65;1.65;;;;;;;3.23;100.00;101191.78;5132411;27;20097;-81
2023/04/26 05:46:55;;;;;;;5.57;1.83;;;;;;;3.50;100.00;101205.56;5136609;27;20469;-80
2023/04/26 05:49:22;;;;;;;4.40;1.80;;;;;;;3.14;100.00;101146.06;5122969;27;20054;-81
2023/04/26 05:51:49;;;;;;;7.28;1.98;;;;;;;3.42;100.00;101167.63;5126137;27;20104;-79
2023/04/26 05:54:16;;;;;;;4.93;1.70;;;;;;;3.55;100.00;101183.13;5124911;27;20090;-79
2023/04/26 05:56:42;;;;;;;7.50;2.10;;;;;;;3.56;100.00;101198.66;5133594;27;20043;-81
2023/04/26 05:59:11;;;;;;;5.15;1.70;;;;;;;3.88;100.00;101202.03;5134232;27;20062;-81
2023/04/26 06:01:37;;;;;;;5.20;1.60;;;;;;;3.90;100.00;101192.56;5132834;27;20388;-81
2023/04/26 06:04:04;;;;;;;5.75;1.77;;;;;;;3.86;100.00;101159.75;5129217;27;20346;-80
2023/04/26 06:06:32;;;;;;;6.47;1.80;;;;;;;4.03;100.00;101177.84;5129592;27;20043;-80
2023/04/26 06:08:59;;;;;;;4.65;1.52;;;;;;;4.44;100.00;101215.69;5119626;27;20047;-79
2023/04/26 06:11:26;;;;;;;6.60;1.63;;;;;;;4.09;100.00;101154.47;5129580;27;20581;-80
2023/04/26 06:13:53;;;;;;;4.65;1.80;;;;;;;4.04;100.00;101131.19;5135995;27;20046;-80
2023/04/26 06:16:21;;;;;;;8.07;1.92;;;;;;;4.23;100.00;101165.63;5135624;27;20130;-81
2023/04/26 06:18:48;;;;;;;5.07;1.90;;;;;;;4.25;100.00;101191.56;5127343;27;20499;-82
2023/04/26 06:21:15;;;;;;;7.72;2.22;;;;;;;4.10;100.00;101198.53;5133142;27;20504;-81
2023/04/26 06:23:41;;;;;;;6.63;2.40;;;;;;;3.66;100.00;101212.44;5134868;27;20047;-81
2023/04/26 06:26:08;;;;;;;6.88;2.00;;;;;;;3.58;100.00;101178.81;5131035;27;20051;-81
2023/04/26 06:28:35;;;;;;;5.10;1.70;;;;;;;3.96;100.00;101223.63;5125205;27;20074;-80
2023/04/26 06:31:02;;;;;;;7.15;2.42;;;;;;;3.78;100.00;101183.09;5134870;27;20054;-80
2023/04/26 06:33:29;;;;;;;7.70;2.03;;;;;;;3.85;100.00;101179.63;5128175;27;20409;-80
2023/04/26 06:35:55;;;;;;;6.13;2.25;;;;;;;3.91;100.00;101174.44;5130404;27;20404;-80
2023/04/26 06:38:22;;;;;;;6.82;2.17;;;;;;;4.30;100.00;101169.97;5128260;27;20434;-81
2023/04/26 06:40:49;;;;;;;4.85;2.00;;;;;;;4.53;100.00;101172.44;5128225;27;20599;-80
2023/04/26 06:43:15;;;;;;;6.15;1.95;;;;;;;5.06;100.00;101211.84;5135188;27;20059;-80
2023/04/26 06:45:42;;;;;;;4.60;1.73;;;;;;;5.15;100.00;101203.13;5136047;27;20055;-80
2023/04/26 06:48:09;;;;;;;5.22;1.55;;;;;;;5.17;100.00;101201.41;5117706;27;20139;-80
2023/04/26 06:50:38;;;;;;;16.63;2.17;;;;;;;5.44;100.00;101241.00;5114349;28;20044;-81
2023/04/26 06:53:05;;;;;;;8.63;2.20;;;;;;;4.86;100.00;101167.03;5130902;27;20043;-80
2023/04/26 06:55:32;;;;;;;14.68;1.80;;;;;;;5.45;100.00;101219.34;5124712;27;20054;-81
2023/04/26 06:57:59;;;;;;;7.65;1.60;;;;;;;5.34;100.00;101214.25;5128767;27;20047;-80
2023/04/26 07:00:27;;;;;;;9.38;2.38;;;;;;;5.34;100.00;101180.47;5130181;27;20047;-80
2023/04/26 07:02:53;;;;;;;4.28;1.55;;;;;;;5.25;100.00;101113.06;5133386;27;20444;-81
2023/04/26 07:05:20;;;;;;;6.55;1.90;;;;;;;6.65;100.00;101225.84;5134051;27;20047;-80
2023/04/26 07:07:48;;;;;;;7.10;2.55;;;;;;;6.24;100.00;101193.44;5134554;27;20270;-80
2023/04/26 07:10:16;;;;;;;4.68;1.65;;;;;;;6.46;100.00;101226.09;5135521;27;20047;-81
2023/04/26 07:12:44;;;;;;;8.80;2.25;;;;;;;6.03;100.00;101204.94;5126063;27;20396;-80
2023/04/26 07:15:11;;;;;;;8.40;1.77;;;;;;;6.04;100.00;101193.69;5128165;27;20536;-81
2023/04/26 07:17:38;;;;;;;9.23;1.65;;;;;;;6.18;100.00;101204.78;5134543;27;20047;-80
2023/04/26 07:20:05;;;;;;;7.97;2.00;;;;;;;5.95;100.00;101206.72;5134054;27;20051;-81
2023/04/26 07:22:32;;;;;;;9.32;1.88;;;;;;;5.77;100.00;101200.00;5133124;27;20047;-80
2023/04/26 07:24:59;;;;;;;6.97;1.67;;;;;;;5.53;100.00;101149.16;5124930;27;20056;-81
2023/04/26 07:27:26;;;;;;;7.85;2.00;;;;;;;5.56;100.00;101149.09;5129249;27;20051;-79
2023/04/26 07:29:54;;;;;;;9.93;2.00;;;;;;;6.05;100.00;101174.59;5120490;27;20069;-80
2023/04/26 07:32:21;;;;;;;7.20;1.83;;;;;;;6.87;100.00;101231.63;5127122;27;20403;-80
2023/04/26 07:34:48;;;;;;;6.45;2.00;;;;;;;7.11;100.00;101204.34;5134969;27;20046;-79
2023/04/26 07:37:15;;;;;;;6.32;1.50;;;;;;;7.15;100.00;101153.09;5134317;27;20047;-80
2023/04/26 07:39:42;;;;;;;6.97;1.77;;;;;;;7.35;100.00;101181.41;5130045;27;20405;-80
2023/04/26 07:42:09;;;;;;;12.77;2.55;;;;;;;6.46;100.00;101168.00;5122197;27;20051;-80
2023/04/26 07:44:35;;;;;;;4.70;2.15;;;;;;;6.92;100.00;101229.81;5119678;27;20043;-80
2023/04/26 07:47:02;;;;;;;7.97;1.90;;;;;;;6.83;100.00;101176.16;5133312;27;20536;-80
2023/04/26 07:49:29;;;;;;;7.47;1.90;;;;;;;6.78;100.00;101130.25;5133247;27;20051;-81
2023/04/26 07:51:57;;;;;;;7.47;1.52;;;;;;;7.02;100.00;101162.84;5130622;27;20046;-79
2023/04/26 07:54:23;;;;;;;9.18;2.03;;;;;;;6.81;100.00;101145.81;5134596;27;20039;-80
2023/04/26 07:56:50;;;;;;;13.80;2.75;;;;;;;7.11;100.00;101213.91;5132814;27;20051;-79
2023/04/26 07:59:17;;;;;;;9.30;2.05;;;;;;;6.64;100.00;101138.28;5128039;27;20046;-79
2023/04/26 08:01:43;;;;;;;7.90;1.95;;;;;;;6.76;100.00;101155.44;5125867;27;20054;-79
2023/04/26 08:04:10;;;;;;;5.40;1.90;;;;;;;6.31;100.00;101111.84;5133738;27;20043;-81
2023/04/26 08:06:38;;;;;;;8.18;1.88;;;;;;;6.52;100.00;101141.91;5121331;27;20051;-81
2023/04/26 08:09:05;;;;;;;6.22;1.85;;;;;;;6.99;100.00;101176.78;5127569;27;20048;-81
2023/04/26 08:11:31;;;;;;;12.50;2.15;;;;;;;6.94;100.00;101181.19;5127058;28;20043;-82
2023/04/26 08:13:58;;;;;;;10.48;3.08;;;;;;;7.26;100.00;101210.19;5119110;28;20055;-80
2023/04/26 08:16:25;;;;;;;8.48;1.70;;;;;;;6.92;100.00;101151.69;5129867;28;20051;-81
2023/04/26 08:18:52;;;;;;;5.20;1.60;;;;;;;7.21;100.00;101147.78;5127130;28;20055;-80
2023/04/26 08:21:18;;;;;;;6.40;1.80;;;;;;;7.34;100.00;101190.09;5128166;28;20071;-80
2023/04/26 08:23:45;;;;;;;7.38;1.70;;;;;;;6.80;100.00;101149.31;5124791;28;20058;-81
2023/04/26 08:26:12;;;;;;;10.68;2.08;;;;;;;7.09;100.00;101156.66;5124936;28;20402;-80
2023/04/26 08:28:39;;;;;;;6.45;1.95;;;;;;;7.17;100.00;101178.22;5133731;27;20055;-80
2023/04/26 08:31:05;;;;;;;8.52;1.65;;;;;;;7.19;100.00;101199.91;5125652;28;20117;-81
2023/04/26 08:33:32;;;;;;;5.05;1.67;;;;;;;7.67;100.00;101208.66;5123035;28;20054;-81
2023/04/26 08:36:00;;;;;;;4.05;1.67;;;;;;;7.58;100.00;101150.59;5131994;28;20066;-80
2023/04/26 08:38:28;;;;;;;5.10;1.63;;;;;;;8.13;100.00;101155.63;5116563;27;20054;-81
2023/04/26 08:40:58;;;;;;;7.82;1.70;;;;;;;8.23;100.00;101144.06;5125728;28;20047;-81
2023/04/26 08:43:26;;;;;;;3.50;1.45;;;;;;;9.06;100.00;101170.09;5130918;28;20047;-81
2023/04/26 08:45:54;;;;;;;5.30;1.80;;;;;;;9.07;100.00;101188.34;5131994;28;20449;-81
2023/04/26 08:48:21;;;;;;;6.38;1.70;;;;;;;9.35;100.00;101179.81;5124868;27;20047;-81
2023/04/26 08:50:49;;;;;;;7.90;1.70;;;;;;;9.09;96.77;101172.63;5123284;28;20438;-81
2023/04/26 08:53:16;;;;;;;11.65;2.00;;;;;;;8.81;96.94;101168.06;5118723;28;20063;-81
2023/04/26 08:55:50;;;;;;;5.68;1.80;;;;;;;8.60;97.47;101165.94;5127123;28;20044;-82
2023/04/26 08:58:17;;;;;;;6.45;1.90;;;;;;;8.99;94.11;101174.59;5128708;28;20058;-81
2023/04/26 09:00:45;;;;;;;6.75;1.60;;;;;;;9.78;88.33;101197.00;5130486;28;20047;-81
2023/04/26 09:03:12;;;;;;;8.52;1.60;;;;;;;9.75;79.90;101211.91;5130848;28;20055;-81
2023/04/26 09:05:42;;;;;;;6.80;1.70;;;;;;;9.68;81.31;101138.00;5132919;27;20397;-80
2023/04/26 09:08:15;;;;;;;6.68;1.60;;;;;;;10.49;76.00;101205.50;5132357;27;20096;-81
2023/04/26 09:10:42;;;;;;;7.13;1.88;;;;;;;10.69;79.27;101190.94;5130865;28;20040;-81
2023/04/26 09:13:10;;;;;;;5.75;1.55;;;;;;;10.25;75.13;101186.09;5128539;28;20265;-81
2023/04/26 09:15:37;;;;;;;5.35;1.50;;;;;;;10.14;78.04;101194.25;5133723;27;20070;-80
2023/04/26 09:18:20;;;;;;;6.03;1.98;;;;;;;9.89;76.45;101192.31;5138849;27;20133;-81
2023/04/26 09:21:04;;;;;;;6.13;1.73;;;;;;;9.60;73.06;101177.44;5137409;27;20047;-81
2023/04/26 09:23:32;;;;;;;4.28;1.50;;;;;;;9.59;77.46;101198.38;5133603;27;20054;-82
2023/04/26 09:26:16;;;;;;;4.10;1.40;;;;;;;9.43;78.48;101185.69;5137894;27;20051;-81
2023/04/26 09:28:42;;;;;;;11.35;1.60;;;;;;;9.39;74.01;101194.53;5137369;27;20058;-81
2023/04/26 09:31:10;;;;;;;7.43;1.77;;;;;;;8.82;75.87;101142.78;5135740;27;20069;-81
2023/04/26 09:33:56;;;;;;;6.60;1.60;;;;;;;9.61;73.93;101123.38;5127234;27;20051;-80
2023/04/26 09:36:23;;;;;;;6.00;1.50;;;;;;;10.33;73.34;101176.28;5121102;27;20047;-80
2023/04/26 09:38:50;;;;;;;3.22;1.20;;;;;;;10.80;71.88;101196.69;5136770;27;20160;-80
2023/04/26 09:41:17;;;;;;;4.78;1.40;;;;;;;10.73;68.62;101167.25;5134187;27;20132;-80
2023/04/26 09:43:43;;;;;;;3.85;1.33;;;;;;;10.43;68.81;101120.16;5135116;27;20437;-81
2023/04/26 09:46:10;;;;;;;6.57;1.70;;;;;;;10.02;64.37;101163.19;5121000;27;20054;-81
2023/04/26 09:48:37;;;;;;;4.82;1.73;;;;;;;9.74;64.47;101192.75;5136199;27;20078;-81
2023/04/26 09:51:13;;;;;;;4.40;1.75;;;;;;;9.88;67.32;101200.22;5134778;27;20050;-81
2023/04/26 09:53:45;;;;;;;7.13;1.60;;;;;;;9.96;66.97;101189.53;5133997;27;20050;-81
2023/04/26 09:56:18;;;;;;;6.90;1.52;;;;;;;9.68;68.08;101195.50;5121393;27;20476;-80
2023/04/26 09:58:45;;;;;;;;;;;;;;;9.96;66.93;101198.25;5122129;27;20053;-80
2023/04/26 10:01:19;;;;;;;4.95;1.50;;;;;;;9.69;67.10;101144.94;5134602;27;19919;-81
2023/04/26 10:03:46;;;;;;;4.88;1.50;;;;;;;9.88;69.47;101153.16;5135038;27;20043;-81
2023/04/26 10:06:13;;;;;;;4.63;1.48;;;;;;;9.91;67.31;101147.81;5135820;27;20051;-81
2023/04/26 10:08:40;;;;;;;6.70;1.33;;;;;;;9.72;65.22;101173.63;5136421;27;20047;-81
2023/04/26 10:11:10;;;;;;;4.60;1.63;;;;;;;9.76;64.25;101174.41;5134955;27;20629;-81
2023/04/26 10:13:38;;;;;;;9.65;2.13;;;;;;;9.12;65.23;101130.75;5134413;27;20047;-79
2023/04/26 10:16:05;;;;;;;4.78;1.60;;;;;;;9.37;65.97;101148.44;5135121;27;20396;-80
2023/04/26 10:18:32;;;;;;;5.65;1.63;;;;;;;9.59;68.15;101149.56;5126615;27;20053;-80
2023/04/26 10:21:06;;;;;;;6.30;1.77;;;;;;;10.10;67.23;101184.78;5136467;27;20058;-80
2023/04/26 10:23:33;;;;;;;4.88;1.70;;;;;;;9.72;64.16;101146.59;5132185;27;20049;-79
2023/04/26 10:26:00;;;;;;;6.32;2.08;;;;;;;9.48;61.09;101152.47;5130649;27;20083;-80
2023/04/26 10:28:56;;;;;;;6.07;1.60;;;;;;;9.59;62.79;101173.09;5123956;27;20051;-80
2023/04/26 10:32:00;;;;;;;5.75;1.80;;;;;;;9.58;62.65;101173.13;5108807;27;20043;-81
2023/04/26 10:34:30;;;;;;;6.45;1.80;;;;;;;9.40;64.96;101146.59;5119789;27;20050;-80
2023/04/26 10:37:17;;;;;;;7.22;1.65;;;;;;;9.63;66.19;101168.63;5136242;27;20047;-81
2023/04/26 10:39:45;;;;;;;6.00;1.70;;;;;;;9.69;64.90;101185.03;5134032;27;20043;-80
2023/04/26 10:42:31;;;;;;;4.85;1.40;;;;;;;10.00;67.59;101178.94;5132702;27;20477;-80
2023/04/26 10:45:27;;;;;;;5.70;1.60;;;;;;;9.78;65.04;101183.06;5134575;27;20050;-80
2023/04/26 10:48:28;;;;;;;5.13;1.70;;;;;;;9.98;64.95;101177.28;5131005;27;20057;-81
2023/04/26 10:51:01;;;;;;;4.90;1.63;;;;;;;9.76;64.13;101180.50;5134229;27;20047;-81
2023/04/26 10:53:29;;;;;;;3.30;1.27;;;;;;;10.35;64.52;101166.63;5133370;27;20039;-81
2023/04/26 10:55:56;;;;;;;6.30;1.70;;;;;;;9.85;62.23;101167.16;5134462;27;20066;-81
2023/04/26 10:58:29;;;;;;;7.85;2.28;;;;;;;10.43;63.19;101169.03;5130457;27;20052;-81
2023/04/26 11:01:06;;;;;;;4.90;1.65;;;;;;;10.68;63.66;101171.75;5124630;27;20039;-81
2023/04/26 11:03:33;;;;;;;4.75;1.30;;;;;;;10.68;61.63;101136.84;5131625;27;20051;-80
2023/04/26 11:06:05;;;;;;;7.35;2.08;;;;;;;10.55;58.46;101139.00;5121506;27;20100;-80
2023/04/26 11:08:34;;;;;;;5.13;1.40;;;;;;;10.39;61.12;101136.88;5135055;27;20050;-79
2023/04/26 11:11:01;;;;;;;5.28;1.90;;;;;;;11.24;61.27;101164.72;5120581;27;20043;-79
2023/04/26 11:13:37;;;;;;;7.60;1.90;;;;;;;10.91;61.46;101157.09;5133650;27;20419;-80
2023/04/26 11:16:15;;;;;;;5.30;1.40;;;;;;;10.48;60.51;101161.03;5133372;27;20051;-80
2023/04/26 11:18:43;;;;;;;6.15;1.70;;;;;;;10.48;61.41;101150.56;5132571;27;20127;-81
2023/04/26 11:21:14;;;;;;;3.97;1.40;;;;;;;10.46;62.24;101163.69;5132588;27;20484;-81
2023/04/26 11:23:40;;;;;;;3.45;1.50;;;;;;;10.43;60.91;101138.47;5126767;27;20500;-80
2023/04/26 11:26:08;;;;;;;3.25;1.40;;;;;;;10.52;61.25;101157.44;5132278;27;20400;-80
2023/04/26 11:28:36;;;;;;;2.88;1.25;;;;;;;10.16;60.72;101141.88;5134277;27;20043;-81
2023/04/26 11:31:05;;;;;;;3.15;1.45;;;;;;;10.34;60.79;101146.63;5133126;27;20043;-80